Time;durP1;ratioP1;P1;durP2;ratioP2;P2;SDS_P1;SDS_P2;PMS_P1;PMS_P2;Temp;Humidity;BMP_temperature;BMP_pressure;BME280_temperature;BME280_humidity;BME280_pressure;Samples;Min_cycle;Max_cycle;Signal;HPM_P1;HPM_P2
2021/09/17 00:01:42;;;;;;;24.98;18.08;;;;;;;18.71;62.95;95456.13;5010296;28;20034;-73
2021/09/17 00:04:08;;;;;;;24.83;17.60;;;;;;;17.50;64.63;95437.47;5009272;28;20053;-74
2021/09/17 00:06:33;;;;;;;24.42;18.38;;;;;;;17.47;65.87;95435.47;5009414;28;20049;-73
2021/09/17 00:08:59;;;;;;;29.27;19.40;;;;;;;17.37;65.37;95436.72;5008391;28;20037;-73
2021/09/17 00:11:24;;;;;;;28.48;19.45;;;;;;;17.74;64.67;95441.25;5009280;28;20463;-73
2021/09/17 00:13:50;;;;;;;25.35;18.23;;;;;;;17.28;65.75;95435.28;5010925;28;20049;-73
2021/09/17 00:16:15;;;;;;;35.45;21.40;;;;;;;17.91;64.25;95443.63;5009114;28;20483;-73
2021/09/17 00:18:40;;;;;;;37.60;21.65;;;;;;;17.93;64.12;95446.78;5007291;28;20034;-73
2021/09/17 00:21:06;;;;;;;42.08;23.30;;;;;;;18.06;63.28;95421.34;5008732;28;20403;-73
2021/09/17 00:23:32;;;;;;;47.95;23.58;;;;;;;18.42;62.66;95443.81;5007956;28;20073;-72
2021/09/17 00:25:58;;;;;;;40.55;22.35;;;;;;;17.53;64.35;95426.03;5010716;28;20487;-72
2021/09/17 00:28:24;;;;;;;34.97;21.38;;;;;;;17.84;64.06;95438.06;5008710;28;20121;-73
2021/09/17 00:30:49;;;;;;;43.60;23.60;;;;;;;18.03;63.50;95443.59;5008585;28;20042;-73
2021/09/17 00:33:15;;;;;;;42.33;23.40;;;;;;;18.13;63.77;95461.94;5007243;28;20053;-72
2021/09/17 00:35:40;;;;;;;45.38;24.10;;;;;;;17.76;62.96;95445.16;5022125;23;20057;-73
2021/09/17 00:38:06;;;;;;;39.67;23.23;;;;;;;18.10;63.53;95459.91;5008058;28;20034;-74
2021/09/17 00:40:32;;;;;;;53.15;25.33;;;;;;;17.96;63.41;95456.06;5010177;28;20078;-73
2021/09/17 00:42:57;;;;;;;48.92;24.10;;;;;;;17.79;62.97;95428.31;5008498;28;20045;-73
2021/09/17 00:45:23;;;;;;;47.55;24.42;;;;;;;17.64;63.98;95435.19;5008743;28;20046;-73
2021/09/17 00:47:48;;;;;;;43.83;23.33;;;;;;;17.67;63.71;95429.13;5008595;28;20040;-73
2021/09/17 00:50:17;;;;;;;63.15;26.15;;;;;;;18.14;63.18;95446.56;5008141;28;20104;-73
2021/09/17 00:52:43;;;;;;;57.20;27.00;;;;;;;17.61;62.99;95410.88;4987090;28;20061;-74
2021/09/17 00:55:10;;;;;;;64.70;27.02;;;;;;;17.80;63.17;95456.00;5005482;28;20045;-73
2021/09/17 00:57:36;;;;;;;62.97;26.95;;;;;;;17.82;63.28;95437.63;4999716;28;20071;-73
2021/09/17 01:00:05;;;;;;;58.10;26.23;;;;;;;17.78;62.71;95423.28;5008133;28;20095;-73
2021/09/17 01:02:30;;;;;;;52.10;26.40;;;;;;;17.57;64.07;95423.44;5007945;28;20049;-75
2021/09/17 01:04:55;;;;;;;64.68;27.95;;;;;;;18.09;63.21;95439.50;5011268;28;20034;-73
2021/09/17 01:07:21;;;;;;;58.38;27.52;;;;;;;17.55;63.18;95434.53;5008977;28;20073;-72
2021/09/17 01:09:48;;;;;;;50.92;25.15;;;;;;;17.40;63.56;95440.63;5008386;28;20042;-73
2021/09/17 01:12:14;;;;;;;60.90;27.83;;;;;;;17.34;63.82;95425.84;5008188;28;20468;-72
2021/09/17 01:14:40;;;;;;;59.83;27.80;;;;;;;17.06;64.29;95380.91;5008030;28;20041;-72
2021/09/17 01:17:06;;;;;;;68.88;28.90;;;;;;;17.57;63.97;95429.59;5008186;28;20026;-73
2021/09/17 01:19:34;;;;;;;59.95;27.58;;;;;;;17.53;63.76;95419.88;5009720;28;20026;-73
2021/09/17 01:22:02;;;;;;;65.20;28.35;;;;;;;17.93;63.48;95428.72;5008178;28;20054;-74
2021/09/17 01:24:28;;;;;;;56.05;28.48;;;;;;;17.82;62.69;95426.88;5007236;28;20034;-73
2021/09/17 01:26:54;;;;;;;49.78;24.65;;;;;;;17.39;63.74;95414.84;5008555;28;20125;-73
2021/09/17 01:29:20;;;;;;;52.03;25.80;;;;;;;17.91;63.79;95419.41;5005221;28;20054;-73
2021/09/17 01:31:45;;;;;;;46.38;23.95;;;;;;;17.78;63.26;95416.00;5008803;28;20440;-72
2021/09/17 01:34:15;;;;;;;40.17;22.02;;;;;;;17.80;62.71;95415.66;5007974;28;20061;-73
2021/09/17 01:36:41;;;;;;;37.10;20.73;;;;;;;16.83;65.61;95395.91;5007953;28;20121;-72
2021/09/17 01:39:06;;;;;;;28.20;19.92;;;;;;;15.97;65.72;95331.44;5007017;28;20133;-73
2021/09/17 01:41:31;;;;;;;29.02;18.23;;;;;;;16.44;66.25;95387.41;5007697;28;20053;-74
2021/09/17 01:43:57;;;;;;;24.67;19.33;;;;;;;16.68;65.71;95410.00;4999889;28;20048;-73
2021/09/17 01:46:22;;;;;;;20.10;16.10;;;;;;;16.86;65.79;95414.06;5007681;28;20065;-73
2021/09/17 01:48:48;;;;;;;28.25;17.60;;;;;;;16.53;65.68;95392.63;5007444;28;20569;-73
2021/09/17 01:51:14;;;;;;;28.98;17.20;;;;;;;16.56;66.42;95414.25;5007975;28;20136;-74
2021/09/17 01:53:40;;;;;;;22.08;16.73;;;;;;;15.99;65.73;95341.81;5009536;28;20046;-75
2021/09/17 01:56:05;;;;;;;27.02;17.85;;;;;;;16.84;65.21;95382.16;5011839;28;20030;-74
2021/09/17 01:58:30;;;;;;;23.98;17.08;;;;;;;17.26;64.46;95407.97;5013887;28;20018;-73
2021/09/17 02:00:56;;;;;;;22.73;16.80;;;;;;;16.81;65.17;95411.59;5011486;28;20133;-73
2021/09/17 02:03:21;;;;;;;18.55;16.13;;;;;;;16.70;65.19;95389.75;5011553;28;20029;-74
2021/09/17 02:05:47;;;;;;;22.02;16.40;;;;;;;16.54;65.54;95419.19;5011874;28;20126;-75
2021/09/17 02:08:12;;;;;;;18.92;15.88;;;;;;;16.73;64.98;95393.69;4993632;28;20026;-73
2021/09/17 02:10:38;;;;;;;23.38;16.98;;;;;;;17.20;64.69;95368.97;5013397;28;20068;-73
2021/09/17 02:13:04;;;;;;;21.70;15.00;;;;;;;17.70;63.68;95424.19;5011595;28;20041;-73
2021/09/17 02:15:30;;;;;;;23.08;15.90;;;;;;;17.75;63.80;95399.75;4992157;28;20081;-73
2021/09/17 02:17:55;;;;;;;20.77;15.38;;;;;;;18.12;63.05;95397.69;4974520;28;20125;-72
2021/09/17 02:20:21;;;;;;;17.73;14.40;;;;;;;18.19;63.25;95422.88;4991446;28;20512;-72
2021/09/17 02:22:46;;;;;;;23.48;15.68;;;;;;;18.49;63.00;95400.91;4979266;28;20029;-73
2021/09/17 02:25:12;;;;;;;28.65;18.48;;;;;;;18.77;62.78;95400.81;5011286;28;20026;-73
2021/09/17 02:27:37;;;;;;;22.50;16.92;;;;;;;18.98;62.59;95408.63;5011453;28;20172;-73
2021/09/17 02:30:05;;;;;;;26.27;16.20;;;;;;;19.06;62.31;95418.44;5010214;28;20041;-72
2021/09/17 02:32:31;;;;;;;19.77;16.10;;;;;;;18.54;62.21;95413.34;5010400;28;20073;-73
2021/09/17 02:34:56;;;;;;;24.25;16.65;;;;;;;18.69;62.23;95413.38;5014075;28;20041;-73
2021/09/17 02:37:21;;;;;;;20.58;16.48;;;;;;;18.69;61.38;95423.38;4994542;28;20041;-72
2021/09/17 02:39:47;;;;;;;16.27;14.57;;;;;;;18.33;61.96;95421.69;5011363;28;20492;-72
2021/09/17 02:42:12;;;;;;;18.98;15.50;;;;;;;18.03;62.27;95383.59;5012105;28;20034;-72
2021/09/17 02:44:37;;;;;;;20.05;16.30;;;;;;;18.72;62.76;95419.19;5010693;28;20038;-72
2021/09/17 02:47:03;;;;;;;19.08;15.98;;;;;;;18.78;62.16;95404.31;5012933;28;20026;-71
2021/09/17 02:49:33;;;;;;;17.67;15.25;;;;;;;19.09;62.17;95427.72;5010692;28;20125;-72
2021/09/17 02:51:59;;;;;;;22.63;15.60;;;;;;;19.13;61.97;95410.50;5009947;28;20038;-72
2021/09/17 02:54:24;;;;;;;18.25;14.60;;;;;;;18.84;61.12;95409.09;5010473;28;21285;-72
2021/09/17 02:56:49;;;;;;;18.60;16.23;;;;;;;18.34;60.56;95394.38;5011179;28;20809;-71
2021/09/17 02:59:15;;;;;;;21.13;15.60;;;;;;;18.17;61.85;95408.19;5007434;28;20034;-73
2021/09/17 03:01:40;;;;;;;17.60;15.30;;;;;;;18.28;62.04;95408.47;5011465;28;20548;-71
2021/09/17 03:04:06;;;;;;;22.10;14.75;;;;;;;18.46;61.99;95398.91;5009486;28;20038;-72
2021/09/17 03:06:31;;;;;;;20.33;14.85;;;;;;;18.48;61.26;95390.47;5010738;28;20540;-71
2021/09/17 03:08:56;;;;;;;19.85;16.25;;;;;;;18.69;62.26;95386.41;5009779;28;20046;-72
2021/09/17 03:11:22;;;;;;;16.67;14.43;;;;;;;18.90;61.96;95394.22;5010257;28;20491;-72
2021/09/17 03:13:47;;;;;;;20.05;15.57;;;;;;;18.87;62.00;95408.38;5012322;28;20033;-72
2021/09/17 03:16:13;;;;;;;18.17;14.95;;;;;;;19.04;62.14;95403.72;5010666;28;20061;-73
2021/09/17 03:18:39;;;;;;;19.02;14.43;;;;;;;18.86;61.16;95411.44;5009805;28;20034;-71
2021/09/17 03:21:04;;;;;;;22.17;15.68;;;;;;;18.88;61.99;95368.72;5010447;28;20045;-71
2021/09/17 03:23:30;;;;;;;17.83;14.98;;;;;;;18.45;59.74;95375.78;5009619;28;20042;-72
2021/09/17 03:25:55;;;;;;;21.50;15.32;;;;;;;18.56;61.64;95392.22;4987596;28;20036;-72
2021/09/17 03:28:21;;;;;;;16.73;15.00;;;;;;;18.75;61.97;95384.25;5000869;28;20030;-72
2021/09/17 03:30:46;;;;;;;17.08;14.00;;;;;;;18.75;60.86;95391.53;5009791;28;20526;-72
2021/09/17 03:33:11;;;;;;;15.40;13.80;;;;;;;18.73;61.59;95409.94;5009741;28;20029;-71
2021/09/17 03:35:40;;;;;;;15.55;13.93;;;;;;;18.65;61.73;95401.69;5008410;28;20053;-71
2021/09/17 03:38:07;;;;;;;16.33;14.73;;;;;;;18.32;60.79;95395.84;5009653;28;20022;-72
2021/09/17 03:40:37;;;;;;;15.35;13.70;;;;;;;17.58;62.05;95404.28;5011138;28;20029;-71
2021/09/17 03:43:03;;;;;;;16.45;14.07;;;;;;;17.85;62.27;95404.63;5009656;28;20026;-72
2021/09/17 03:45:31;;;;;;;16.27;14.57;;;;;;;17.35;63.64;95405.91;5009753;28;20057;-72
2021/09/17 03:47:58;;;;;;;18.63;15.27;;;;;;;17.36;64.32;95396.75;5009605;28;20037;-72
2021/09/17 03:50:23;;;;;;;19.80;14.95;;;;;;;17.30;63.00;95395.38;4991728;28;20026;-72
2021/09/17 03:52:48;;;;;;;16.42;14.25;;;;;;;17.04;64.78;95399.25;5010917;28;20041;-72
2021/09/17 03:55:14;;;;;;;17.40;14.35;;;;;;;17.17;64.20;95391.19;4983632;28;20042;-72
2021/09/17 03:57:39;;;;;;;16.58;14.02;;;;;;;17.02;65.48;95396.13;5009532;28;20042;-72
2021/09/17 04:00:06;;;;;;;16.10;14.38;;;;;;;16.86;64.25;95387.97;5009165;28;20038;-72
2021/09/17 04:02:32;;;;;;;17.13;13.80;;;;;;;16.72;65.65;95390.22;5009265;28;20048;-72
2021/09/17 04:04:57;;;;;;;18.90;14.32;;;;;;;16.70;65.78;95392.44;5011163;28;20033;-72
2021/09/17 04:07:22;;;;;;;17.33;14.35;;;;;;;16.86;64.90;95376.44;5008075;28;20050;-71
2021/09/17 04:09:48;;;;;;;15.40;13.90;;;;;;;16.57;65.04;95385.50;5008365;28;20507;-71
2021/09/17 04:12:13;;;;;;;19.17;14.52;;;;;;;16.48;65.64;95380.25;5009142;28;20069;-71
2021/09/17 04:14:38;;;;;;;18.45;15.00;;;;;;;16.90;64.97;95371.97;5008923;28;20042;-72
2021/09/17 04:17:04;;;;;;;19.73;14.43;;;;;;;17.02;65.26;95374.63;5010794;28;20080;-72
2021/09/17 04:19:29;;;;;;;17.73;15.40;;;;;;;17.33;63.86;95375.91;5008882;28;20053;-71
2021/09/17 04:21:55;;;;;;;20.73;15.65;;;;;;;16.89;65.51;95383.84;5009073;28;20029;-71
2021/09/17 04:24:20;;;;;;;16.50;14.85;;;;;;;16.75;64.93;95351.94;5008104;28;20038;-71
2021/09/17 04:26:45;;;;;;;21.45;15.57;;;;;;;17.07;64.64;95376.31;5009115;28;20081;-71
2021/09/17 04:29:11;;;;;;;19.45;14.95;;;;;;;17.11;64.47;95383.34;5008304;28;20030;-69
2021/09/17 04:31:36;;;;;;;20.60;16.60;;;;;;;16.53;66.42;95396.13;5010834;28;20037;-69
2021/09/17 04:34:02;;;;;;;23.15;15.23;;;;;;;16.94;65.57;95385.50;5008712;28;20116;-69
2021/09/17 04:36:27;;;;;;;19.75;16.55;;;;;;;17.08;65.20;95399.34;5008768;28;20096;-70
2021/09/17 04:38:52;;;;;;;18.70;15.48;;;;;;;16.79;65.92;95400.41;4983872;28;20053;-69
2021/09/17 04:41:18;;;;;;;16.60;15.00;;;;;;;17.29;64.47;95407.25;5006861;28;20368;-68
2021/09/17 04:43:43;;;;;;;17.75;14.63;;;;;;;17.09;64.70;95399.00;5010404;28;20028;-69
2021/09/17 04:46:09;;;;;;;20.42;15.60;;;;;;;17.43;64.21;95402.31;5008472;28;20038;-67
2021/09/17 04:48:34;;;;;;;18.55;16.35;;;;;;;17.38;64.37;95402.53;5008554;28;20068;-67
2021/09/17 04:50:59;;;;;;;19.55;15.30;;;;;;;17.69;64.48;95401.88;5008471;28;20464;-66
2021/09/17 04:53:25;;;;;;;18.38;15.95;;;;;;;17.87;62.91;95405.88;5007434;28;20085;-66
2021/09/17 04:55:51;;;;;;;24.00;17.35;;;;;;;18.32;63.01;95417.41;5010211;28;20050;-71
2021/09/17 04:58:16;;;;;;;20.52;15.38;;;;;;;18.75;63.16;95407.72;4998406;28;20045;-70
2021/09/17 05:00:42;;;;;;;17.13;15.02;;;;;;;19.06;62.76;95409.56;5007756;28;20038;-69
2021/09/17 05:03:07;;;;;;;19.50;14.95;;;;;;;19.30;62.50;95400.47;5006442;28;20034;-67
2021/09/17 05:05:33;;;;;;;21.73;16.70;;;;;;;19.59;62.45;95415.31;5008164;28;20136;-67
2021/09/17 05:07:58;;;;;;;20.42;15.40;;;;;;;19.62;61.72;95406.56;5010046;28;20040;-68
2021/09/17 05:10:24;;;;;;;21.85;15.63;;;;;;;19.79;61.93;95424.22;5006986;28;20053;-67
2021/09/17 05:12:49;;;;;;;23.85;15.85;;;;;;;19.93;61.36;95408.31;5007587;28;20181;-67
2021/09/17 05:15:15;;;;;;;19.52;15.50;;;;;;;20.04;61.14;95401.19;5007673;28;20093;-68
2021/09/17 05:17:40;;;;;;;19.98;15.45;;;;;;;20.07;61.12;95405.88;5007940;28;20512;-66
2021/09/17 05:20:07;;;;;;;18.67;15.63;;;;;;;20.10;61.09;95405.16;4989905;28;20137;-67
2021/09/17 05:22:33;;;;;;;17.67;14.50;;;;;;;20.19;61.08;95408.41;5009213;28;20036;-65
2021/09/17 05:24:58;;;;;;;18.80;15.23;;;;;;;20.18;61.17;95401.44;5007250;28;20034;-66
2021/09/17 05:27:25;;;;;;;20.45;15.57;;;;;;;20.33;61.16;95415.22;5006906;28;20152;-68
2021/09/17 05:29:52;;;;;;;20.70;14.85;;;;;;;20.41;60.95;95417.66;5007213;28;20474;-68
2021/09/17 05:32:20;;;;;;;25.33;19.20;;;;;;;20.49;60.77;95427.50;5007636;28;20104;-66
2021/09/17 05:34:46;;;;;;;18.77;16.45;;;;;;;20.42;60.63;95418.44;5010310;28;20026;-68
2021/09/17 05:37:11;;;;;;;17.70;15.45;;;;;;;20.47;60.84;95423.56;5007534;28;20115;-71
2021/09/17 05:39:37;;;;;;;20.27;14.05;;;;;;;20.39;60.21;95428.06;5006611;28;20076;-71
2021/09/17 05:42:02;;;;;;;15.30;13.70;;;;;;;20.40;60.36;95418.81;5007340;28;20038;-69
2021/09/17 05:44:28;;;;;;;16.40;14.82;;;;;;;20.36;60.41;95414.47;4989466;28;20484;-70
2021/09/17 05:46:54;;;;;;;15.88;13.85;;;;;;;20.43;60.15;95428.91;5009787;28;20141;-71
2021/09/17 05:49:19;;;;;;;19.73;15.30;;;;;;;20.37;60.55;95407.94;5007174;28;20046;-70
2021/09/17 05:51:45;;;;;;;15.18;13.73;;;;;;;20.54;60.58;95412.13;4987097;28;20033;-69
2021/09/17 05:54:11;;;;;;;18.20;13.90;;;;;;;20.51;58.60;95430.59;5005152;28;20040;-68
2021/09/17 05:56:36;;;;;;;15.55;14.00;;;;;;;20.23;59.16;95422.78;5006901;28;20132;-69
2021/09/17 05:59:02;;;;;;;15.68;13.75;;;;;;;19.46;58.66;95428.94;5009009;28;20010;-69
2021/09/17 06:01:27;;;;;;;15.52;13.43;;;;;;;19.18;59.51;95425.63;5007605;28;20046;-69
2021/09/17 06:03:52;;;;;;;15.40;13.85;;;;;;;19.62;60.83;95426.22;5007165;28;20045;-69
2021/09/17 06:06:18;;;;;;;16.20;12.38;;;;;;;18.57;59.44;95428.78;5007436;28;20042;-69
2021/09/17 06:08:44;;;;;;;14.25;12.77;;;;;;;18.21;60.63;95419.03;5006684;28;20485;-69
2021/09/17 06:11:10;;;;;;;14.98;13.07;;;;;;;17.85;61.64;95424.25;5007067;28;20030;-71
2021/09/17 06:13:35;;;;;;;18.25;12.95;;;;;;;19.05;61.97;95432.28;4992197;28;20045;-71
2021/09/17 06:16:00;;;;;;;14.10;12.70;;;;;;;19.30;60.52;95430.16;4993769;28;20399;-71
2021/09/17 06:18:26;;;;;;;14.27;12.88;;;;;;;18.72;59.78;95419.19;5007221;28;20129;-70
2021/09/17 06:20:51;;;;;;;14.80;13.50;;;;;;;18.45;60.47;95432.34;5006967;28;20527;-70
2021/09/17 06:23:16;;;;;;;16.35;13.40;;;;;;;18.69;60.11;95418.75;5007233;28;20037;-70
2021/09/17 06:25:42;;;;;;;16.75;14.07;;;;;;;19.65;61.21;95422.78;5008671;28;20076;-69
2021/09/17 06:28:08;;;;;;;13.43;12.02;;;;;;;19.49;59.86;95419.34;5007077;28;20038;-70
2021/09/17 06:30:34;;;;;;;14.75;12.57;;;;;;;19.64;60.97;95412.38;5007191;28;20042;-70
2021/09/17 06:32:59;;;;;;;15.20;13.23;;;;;;;18.87;59.01;95415.69;5007200;28;20088;-71
2021/09/17 06:35:25;;;;;;;14.70;13.30;;;;;;;19.93;60.68;95421.81;5007973;28;20056;-71
2021/09/17 06:37:52;;;;;;;14.50;13.13;;;;;;;20.45;60.12;95432.03;4992789;28;20026;-71
2021/09/17 06:40:20;;;;;;;14.80;12.02;;;;;;;20.54;60.46;95421.00;5010220;28;20034;-70
2021/09/17 06:42:47;;;;;;;13.52;12.20;;;;;;;20.74;60.37;95425.22;5010580;28;20053;-70
2021/09/17 06:45:12;;;;;;;13.52;12.23;;;;;;;20.88;60.47;95438.19;5010706;28;20121;-70
2021/09/17 06:47:46;;;;;;;14.05;11.90;;;;;;;21.05;60.21;95423.38;5010946;28;20121;-70
2021/09/17 06:50:12;;;;;;;13.60;11.23;;;;;;;21.17;60.02;95420.44;5010414;28;20225;-70
2021/09/17 06:52:37;;;;;;;15.05;11.88;;;;;;;21.32;59.95;95426.09;5012400;28;20112;-69
2021/09/17 06:55:03;;;;;;;13.07;11.60;;;;;;;21.33;59.90;95427.63;5009981;28;20499;-69
2021/09/17 06:57:29;;;;;;;15.25;11.35;;;;;;;21.51;59.77;95437.56;5010288;28;20522;-70
2021/09/17 06:59:54;;;;;;;11.95;10.38;;;;;;;21.61;59.89;95430.72;5009891;28;20034;-71
2021/09/17 07:02:20;;;;;;;12.20;10.98;;;;;;;21.77;59.40;95430.53;5009125;28;20431;-69
2021/09/17 07:04:45;;;;;;;11.88;10.63;;;;;;;22.08;58.92;95437.47;5012154;28;20111;-72
2021/09/17 07:07:11;;;;;;;13.95;12.00;;;;;;;22.22;58.51;95432.25;5009129;28;20069;-70
2021/09/17 07:09:36;;;;;;;11.68;10.68;;;;;;;22.36;58.73;95417.25;5009715;28;20496;-70
2021/09/17 07:12:01;;;;;;;12.65;10.50;;;;;;;22.47;57.66;95423.56;5010109;28;20069;-71
2021/09/17 07:14:27;;;;;;;13.23;11.43;;;;;;;22.55;58.03;95427.91;5009666;28;20504;-70
2021/09/17 07:16:52;;;;;;;12.48;10.82;;;;;;;22.50;57.25;95417.41;4994531;28;20496;-71
2021/09/17 07:19:18;;;;;;;11.40;10.40;;;;;;;22.47;53.68;95429.78;5010025;28;20034;-71
2021/09/17 07:21:44;;;;;;;13.50;11.52;;;;;;;22.10;54.58;95423.56;4992773;28;20464;-70
2021/09/17 07:24:09;;;;;;;12.80;10.40;;;;;;;21.55;56.78;95432.22;4992100;28;20484;-70
2021/09/17 07:26:34;;;;;;;11.90;10.60;;;;;;;22.41;58.14;95423.13;5009841;28;20451;-70
2021/09/17 07:29:00;;;;;;;11.00;9.98;;;;;;;22.91;57.46;95430.94;5011342;28;20026;-70
2021/09/17 07:31:25;;;;;;;11.98;10.82;;;;;;;21.30;53.38;95421.03;5010156;28;20081;-70
2021/09/17 07:33:50;;;;;;;11.18;10.07;;;;;;;22.42;56.87;95419.28;5009892;28;20092;-71
2021/09/17 07:36:16;;;;;;;12.13;10.80;;;;;;;22.89;57.67;95404.22;5009770;28;20399;-70
2021/09/17 07:38:41;;;;;;;13.18;10.60;;;;;;;23.45;57.61;95419.28;5009370;28;20038;-70
2021/09/17 07:41:07;;;;;;;11.18;9.30;;;;;;;23.83;57.43;95420.66;5009100;28;20038;-70
2021/09/17 07:43:32;;;;;;;11.00;10.00;;;;;;;23.21;54.05;95426.13;5011291;28;20026;-70
2021/09/17 07:45:57;;;;;;;13.50;9.77;;;;;;;23.65;55.53;95427.16;5009691;28;20042;-70
2021/09/17 07:48:23;;;;;;;9.20;8.43;;;;;;;23.92;56.34;95416.81;5009575;28;20042;-71
2021/09/17 07:50:48;;;;;;;10.45;9.60;;;;;;;23.71;51.48;95423.72;4990841;28;20045;-71
2021/09/17 07:53:14;;;;;;;10.38;9.57;;;;;;;24.12;55.23;95428.91;5009186;28;20021;-71
2021/09/17 07:55:40;;;;;;;10.32;9.18;;;;;;;23.04;49.65;95424.06;5010602;28;20036;-70
2021/09/17 07:58:06;;;;;;;9.65;8.85;;;;;;;22.97;53.67;95386.03;5009171;28;20038;-72
2021/09/17 08:00:32;;;;;;;9.85;8.70;;;;;;;22.12;51.72;95422.06;5008874;28;20037;-70
2021/09/17 08:02:57;;;;;;;10.40;9.40;;;;;;;22.17;51.55;95420.97;4991471;28;20049;-70
2021/09/17 08:05:23;;;;;;;11.18;9.27;;;;;;;23.18;56.08;95415.25;5009563;28;20025;-69
2021/09/17 08:07:51;;;;;;;10.93;9.82;;;;;;;23.69;55.02;95426.03;5011824;28;20026;-70
2021/09/17 08:10:17;;;;;;;8.93;8.02;;;;;;;24.24;55.07;95409.50;5008610;28;20112;-70
2021/09/17 08:12:42;;;;;;;9.40;8.10;;;;;;;23.99;47.43;95423.03;5009124;28;20030;-73
2021/09/17 08:15:08;;;;;;;9.73;8.85;;;;;;;22.74;53.73;95432.34;4991483;28;20045;-69
2021/09/17 08:17:33;;;;;;;8.60;7.80;;;;;;;22.34;49.83;95417.66;5009536;28;20046;-69
2021/09/17 08:19:59;;;;;;;7.53;6.93;;;;;;;23.24;53.52;95427.31;5010684;28;20028;-71
2021/09/17 08:22:24;;;;;;;8.45;7.68;;;;;;;22.86;50.19;95425.84;4991473;28;20034;-69
2021/09/17 08:24:50;;;;;;;7.32;6.65;;;;;;;23.01;54.11;95422.88;5008039;28;20068;-69
2021/09/17 08:27:15;;;;;;;8.32;7.53;;;;;;;23.81;55.42;95438.50;4990807;28;20365;-69
2021/09/17 08:29:40;;;;;;;9.07;7.32;;;;;;;24.32;55.01;95434.78;5008513;28;20038;-69
2021/09/17 08:32:06;;;;;;;8.30;7.60;;;;;;;24.67;55.02;95431.38;5008943;28;20034;-69
2021/09/17 08:34:32;;;;;;;9.35;8.48;;;;;;;24.36;48.73;95432.88;5010675;28;20361;-69
2021/09/17 08:36:57;;;;;;;8.43;7.80;;;;;;;23.89;54.29;95429.22;5008581;28;20131;-70
2021/09/17 08:39:23;;;;;;;8.77;7.95;;;;;;;23.33;53.32;95428.50;5007479;28;20127;-69
2021/09/17 08:41:48;;;;;;;8.38;7.68;;;;;;;24.03;54.76;95431.22;5008802;28;20391;-71
2021/09/17 08:44:14;;;;;;;7.47;6.82;;;;;;;24.30;54.11;95420.78;5008472;28;20495;-69
2021/09/17 08:46:41;;;;;;;8.95;7.18;;;;;;;24.55;54.56;95437.19;5010427;28;20029;-69
2021/09/17 08:49:08;;;;;;;7.10;6.40;;;;;;;23.00;46.55;95434.13;5008041;28;20088;-69
2021/09/17 08:51:33;;;;;;;8.30;6.90;;;;;;;22.84;51.82;95446.00;5008640;28;20049;-69
2021/09/17 08:54:01;;;;;;;6.38;5.78;;;;;;;23.52;50.34;95434.84;5008036;28;20042;-69
2021/09/17 08:56:27;;;;;;;9.10;6.82;;;;;;;22.39;51.30;95438.22;5007870;28;20176;-69
2021/09/17 08:58:53;;;;;;;8.90;7.20;;;;;;;21.80;50.56;95446.03;5009727;28;20042;-69
2021/09/17 09:01:28;;;;;;;7.68;7.07;;;;;;;22.23;53.48;95447.34;4998364;28;20038;-69
2021/09/17 09:04:00;;;;;;;7.60;6.85;;;;;;;22.40;53.86;95431.63;5007808;28;20058;-70
2021/09/17 09:06:26;;;;;;;;;;;;;;;21.75;50.10;95436.34;4991031;28;20056;-69
2021/09/17 09:08:52;;;;;;;7.97;7.28;;;;;;;20.76;51.48;95422.91;5007742;28;19918;-69
2021/09/17 09:11:22;;;;;;;7.70;7.10;;;;;;;21.53;55.03;95439.91;4981858;28;20041;-69
2021/09/17 09:14:15;;;;;;;7.40;6.63;;;;;;;20.60;51.55;95438.47;5009798;28;20084;-70
2021/09/17 09:16:47;;;;;;;7.55;6.85;;;;;;;21.50;50.67;95436.00;4999993;28;20042;-69
2021/09/17 09:19:16;;;;;;;8.93;8.23;;;;;;;20.90;54.65;95435.09;5007731;28;20029;-69
2021/09/17 09:21:41;;;;;;;9.63;8.38;;;;;;;22.24;53.13;95421.03;5006877;28;20089;-69
2021/09/17 09:24:16;;;;;;;9.45;8.55;;;;;;;23.12;54.82;95439.25;5008012;28;20037;-69
2021/09/17 09:26:41;;;;;;;12.63;7.97;;;;;;;23.47;50.09;95432.47;5007737;28;20042;-69
2021/09/17 09:29:25;;;;;;;11.63;6.95;;;;;;;23.40;49.46;95427.81;5007260;28;20026;-70
2021/09/17 09:31:50;;;;;;;7.32;6.70;;;;;;;23.37;49.80;95417.69;5010049;28;20065;-69
2021/09/17 09:34:16;;;;;;;8.00;7.20;;;;;;;24.26;49.17;95411.84;5007566;28;20069;-70
2021/09/17 09:36:41;;;;;;;6.97;6.40;;;;;;;23.98;46.65;95412.56;5007611;28;20064;-69
2021/09/17 09:39:07;;;;;;;6.93;6.30;;;;;;;23.97;45.67;95411.00;5007499;28;20132;-69
2021/09/17 09:41:35;;;;;;;8.88;6.60;;;;;;;24.17;49.12;95404.06;5007226;28;20133;-70
2021/09/17 09:44:04;;;;;;;6.53;6.00;;;;;;;24.20;44.48;95402.50;5009155;28;20026;-69
2021/09/17 09:46:33;;;;;;;6.38;5.78;;;;;;;23.17;49.56;95408.25;4999942;28;20034;-64
2021/09/17 09:48:58;;;;;;;6.22;5.65;;;;;;;22.74;51.23;95403.28;5007576;28;20038;-69
2021/09/17 09:51:31;;;;;;;6.30;5.82;;;;;;;22.57;44.75;95396.56;5008033;28;20543;-76
2021/09/17 09:53:57;;;;;;;5.93;4.95;;;;;;;21.42;47.63;95401.09;5007248;28;20093;-67
2021/09/17 09:56:23;;;;;;;7.07;6.47;;;;;;;21.47;50.49;95398.06;5007108;28;20029;-67
2021/09/17 09:58:50;;;;;;;6.80;6.20;;;;;;;21.23;48.62;95393.84;4983572;28;20153;-67
2021/09/17 10:01:19;;;;;;;6.10;5.60;;;;;;;21.24;48.95;95392.69;5007351;28;20046;-67
2021/09/17 10:03:46;;;;;;;6.47;4.60;;;;;;;22.10;50.04;95389.13;5006935;28;20038;-71
2021/09/17 10:06:16;;;;;;;5.55;5.15;;;;;;;21.45;48.76;95392.25;5007636;28;20125;-68
2021/09/17 10:08:42;;;;;;;5.53;5.13;;;;;;;21.04;49.79;95378.53;5007026;28;20062;-67
2021/09/17 10:11:07;;;;;;;6.97;5.45;;;;;;;22.52;50.44;95387.97;4981266;28;20388;-66
2021/09/17 10:13:33;;;;;;;5.38;4.88;;;;;;;22.35;46.75;95385.91;5009965;28;20101;-67
2021/09/17 10:15:59;;;;;;;6.30;5.70;;;;;;;22.71;47.19;95390.47;5011307;28;20099;-66
2021/09/17 10:18:25;;;;;;;5.35;4.95;;;;;;;22.94;43.36;95384.88;5011641;28;20034;-67
2021/09/17 10:20:51;;;;;;;5.25;4.75;;;;;;;22.74;43.72;95400.56;5010621;28;20100;-67
2021/09/17 10:23:26;;;;;;;4.72;4.35;;;;;;;23.23;44.23;95393.94;5011181;28;20715;-67
2021/09/17 10:26:07;;;;;;;5.40;4.90;;;;;;;21.69;44.61;95404.53;5012712;28;20088;-67
2021/09/17 10:28:34;;;;;;;5.15;4.75;;;;;;;22.35;43.51;95391.31;5003643;28;20130;-67
2021/09/17 10:31:16;;;;;;;4.88;4.40;;;;;;;23.42;44.54;95384.75;5005475;28;20061;-67
2021/09/17 10:33:42;;;;;;;4.57;4.20;;;;;;;22.76;40.94;95389.34;5011039;28;20045;-73
2021/09/17 10:36:08;;;;;;;4.28;3.90;;;;;;;22.36;42.58;95385.53;5009790;28;20581;-68
2021/09/17 10:38:34;;;;;;;2.75;2.55;;;;;;;21.58;40.14;95377.31;5011250;28;20045;-68
2021/09/17 10:41:01;;;;;;;4.55;3.42;;;;;;;21.69;42.53;95378.22;5012291;28;20026;-69
2021/09/17 10:43:29;;;;;;;3.42;3.13;;;;;;;23.35;43.78;95368.44;5010212;28;20045;-69
2021/09/17 10:45:56;;;;;;;3.45;2.70;;;;;;;23.34;43.37;95373.09;5001427;28;20395;-68
2021/09/17 10:48:27;;;;;;;2.67;2.47;;;;;;;22.70;38.54;95380.78;5011033;28;20042;-67
2021/09/17 10:51:02;;;;;;;3.83;3.20;;;;;;;23.88;38.01;95370.59;5010835;28;20033;-68
2021/09/17 10:53:40;;;;;;;3.38;2.50;;;;;;;24.69;40.38;95371.91;5010643;28;20038;-69
2021/09/17 10:56:11;;;;;;;2.45;2.30;;;;;;;24.44;41.31;95371.91;5010306;28;20033;-67
2021/09/17 10:58:37;;;;;;;3.28;2.25;;;;;;;25.23;40.97;95369.91;5012265;28;20044;-68
2021/09/17 11:01:10;;;;;;;4.13;2.40;;;;;;;24.22;37.19;95367.59;5010517;28;20125;-66
2021/09/17 11:03:35;;;;;;;2.78;2.40;;;;;;;23.01;38.13;95374.06;5010214;28;20058;-65
2021/09/17 11:06:22;;;;;;;1.90;1.70;;;;;;;22.84;37.08;95372.75;4992879;28;20060;-65
2021/09/17 11:08:50;;;;;;;2.00;1.83;;;;;;;23.75;37.62;95370.19;5010350;28;20076;-65
2021/09/17 11:11:33;;;;;;;2.58;1.90;;;;;;;22.84;37.56;95364.63;5009939;28;20025;-65
2021/09/17 11:14:04;;;;;;;2.28;2.17;;;;;;;21.90;40.11;95366.06;5011809;28;20030;-65
2021/09/17 11:16:30;;;;;;;1.75;1.58;;;;;;;22.45;39.95;95363.53;5001267;28;20530;-65
2021/09/17 11:19:05;;;;;;;1.58;1.48;;;;;;;22.47;38.29;95366.63;5009924;28;20050;-65